createdAt,value
2019-01-27T00:00:23.116Z,0
2019-01-27T00:01:22.543Z,0
2019-01-27T00:02:22.783Z,0
2019-01-27T00:03:22.788Z,0
2019-01-27T00:04:23.680Z,0
2019-01-27T00:05:23.108Z,0
2019-01-27T00:06:22.500Z,0
2019-01-27T00:07:22.271Z,0
2019-01-27T00:08:22.500Z,0
2019-01-27T00:09:22.452Z,0
2019-01-27T00:10:22.774Z,0
2019-01-27T00:11:22.669Z,0
2019-01-27T00:12:22.663Z,0
2019-01-27T00:13:22.691Z,0
2019-01-27T00:14:22.674Z,0
2019-01-27T00:15:22.484Z,0
2019-01-27T00:16:22.397Z,0
2019-01-27T00:17:22.675Z,0
2019-01-27T00:18:22.644Z,0
2019-01-27T00:19:22.870Z,0
2019-01-27T00:20:22.637Z,0
2019-01-27T00:21:22.606Z,0
2019-01-27T00:22:22.722Z,0
2019-01-27T00:23:23.043Z,0
2019-01-27T00:24:22.603Z,0
2019-01-27T00:25:22.582Z,0
2019-01-27T00:26:22.549Z,0
2019-01-27T00:27:22.543Z,0
2019-01-27T00:28:22.767Z,0
2019-01-27T00:29:22.503Z,0
2019-01-27T00:30:22.833Z,0
2019-01-27T00:31:22.748Z,0
2019-01-27T00:32:22.262Z,0
2019-01-27T00:33:22.734Z,0
2019-01-27T00:34:22.465Z,0
2019-01-27T00:35:22.504Z,0
2019-01-27T00:36:22.776Z,0
2019-01-27T00:37:22.186Z,0
2019-01-27T00:38:22.190Z,0
2019-01-27T00:39:22.169Z,0
2019-01-27T00:40:22.232Z,0
2019-01-27T00:41:22.678Z,0
2019-01-27T00:42:22.141Z,0
2019-01-27T00:43:22.646Z,0
2019-01-27T00:44:22.650Z,0
2019-01-27T00:45:22.438Z,0
2019-01-27T00:46:22.377Z,0
2019-01-27T00:47:22.340Z,0
2019-01-27T00:48:22.395Z,0
2019-01-27T00:49:22.566Z,0
2019-01-27T00:50:22.166Z,0
2019-01-27T00:51:22.318Z,0
2019-01-27T00:52:22.313Z,0
2019-01-27T00:53:22.306Z,0
2019-01-27T00:54:22.052Z,0
2019-01-27T00:55:22.641Z,0
2019-01-27T00:56:22.264Z,0
2019-01-27T00:57:22.009Z,0
2019-01-27T00:58:22.007Z,0
2019-01-27T00:59:22.758Z,0
2019-01-27T01:00:22.012Z,0
2019-01-27T01:01:22.214Z,0
2019-01-27T01:02:22.214Z,0
2019-01-27T01:03:22.464Z,0
2019-01-27T01:04:22.450Z,0
2019-01-27T01:05:22.509Z,0
2019-01-27T01:06:22.488Z,0
2019-01-27T01:07:21.915Z,0
2019-01-27T01:08:22.154Z,0
2019-01-27T01:09:21.892Z,0
2019-01-27T01:10:21.925Z,0
2019-01-27T01:11:22.377Z,0
2019-01-27T01:12:21.648Z,0
2019-01-27T01:13:22.347Z,0
2019-01-27T01:14:22.110Z,0
2019-01-27T01:15:22.081Z,0
2019-01-27T01:16:22.088Z,0
2019-01-27T01:17:22.327Z,0
2019-01-27T01:18:22.070Z,0
2019-01-27T01:19:22.091Z,0
2019-01-27T01:20:21.871Z,0
2019-01-27T01:21:22.259Z,0
2019-01-27T01:22:22.274Z,0
2019-01-27T01:23:22.019Z,0
2019-01-27T01:24:22.247Z,0
2019-01-27T01:25:22.292Z,0
2019-01-27T01:26:21.972Z,0
2019-01-27T01:27:21.737Z,0
2019-01-27T01:28:21.960Z,0
2019-01-27T01:29:21.945Z,0
2019-01-27T01:30:22.231Z,0
2019-01-27T01:31:22.187Z,0
2019-01-27T01:32:22.187Z,0
2019-01-27T01:33:22.185Z,0
2019-01-27T01:34:22.152Z,0
2019-01-27T01:35:21.907Z,0
2019-01-27T01:36:22.126Z,0
2019-01-27T01:37:21.875Z,0
2019-01-27T01:38:21.617Z,0
2019-01-27T01:39:22.093Z,0
2019-01-27T01:40:22.190Z,0
2019-01-27T01:41:22.084Z,0
2019-01-27T01:42:22.071Z,0
2019-01-27T01:43:21.827Z,0
2019-01-27T01:44:21.808Z,0
2019-01-27T01:45:21.828Z,0
2019-01-27T01:46:21.875Z,0
2019-01-27T01:47:21.773Z,0
2019-01-27T01:48:21.772Z,0
2019-01-27T01:49:21.751Z,0
2019-01-27T01:50:21.595Z,0
2019-01-27T01:51:21.996Z,0
2019-01-27T01:52:21.982Z,0
2019-01-27T01:53:21.498Z,0
2019-01-27T01:54:21.490Z,0
2019-01-27T01:55:21.748Z,0
2019-01-27T01:56:21.950Z,0
2019-01-27T01:57:21.728Z,0
2019-01-27T01:58:21.420Z,0
2019-01-27T01:59:21.902Z,0
2019-01-27T02:00:21.686Z,0
2019-01-27T02:01:21.649Z,0
2019-01-27T02:02:21.707Z,0
2019-01-27T02:03:21.649Z,0
2019-01-27T02:04:21.931Z,0
2019-01-27T02:05:21.149Z,0
2019-01-27T02:06:21.350Z,0
2019-01-27T02:07:21.339Z,0
2019-01-27T02:08:21.401Z,0
2019-01-27T02:09:21.817Z,0
2019-01-27T02:10:21.413Z,0
2019-01-27T02:11:21.553Z,0
2019-01-27T02:12:21.803Z,0
2019-01-27T02:13:21.547Z,0
2019-01-27T02:14:21.787Z,0
2019-01-27T02:15:21.795Z,0
2019-01-27T02:16:21.498Z,0
2019-01-27T02:17:21.622Z,0
2019-01-27T02:18:21.495Z,0
2019-01-27T02:19:21.488Z,0
2019-01-27T02:20:21.278Z,0
2019-01-27T02:21:21.474Z,0
2019-01-27T02:22:21.204Z,0
2019-01-27T02:23:21.779Z,0
2019-01-27T02:24:21.677Z,0
2019-01-27T02:25:21.498Z,0
2019-01-27T02:26:21.246Z,0
2019-01-27T02:27:21.171Z,0
2019-01-27T02:28:20.883Z,0
2019-01-27T02:29:21.380Z,0
2019-01-27T02:30:21.517Z,0
2019-01-27T02:31:21.391Z,0
2019-01-27T02:32:20.861Z,0
2019-01-27T02:33:21.601Z,0
2019-01-27T02:34:21.344Z,0
2019-01-27T02:35:21.657Z,0
2019-01-27T02:36:21.070Z,0
2019-01-27T02:37:21.056Z,0
2019-01-27T02:38:21.294Z,0
2019-01-27T02:39:21.317Z,0
2019-01-27T02:40:21.101Z,0
2019-01-27T02:41:21.267Z,0
2019-01-27T02:42:21.532Z,0
2019-01-27T02:43:21.517Z,0
2019-01-27T02:44:21.280Z,0
2019-01-27T02:45:21.576Z,0
2019-01-27T02:46:21.344Z,0
2019-01-27T02:47:21.217Z,0
2019-01-27T02:48:21.456Z,0
2019-01-27T02:49:21.192Z,0
2019-01-27T02:50:20.962Z,0
2019-01-27T02:51:21.187Z,0
2019-01-27T02:52:21.180Z,0
2019-01-27T02:53:21.435Z,0
2019-01-27T02:54:21.400Z,0
2019-01-27T02:55:21.439Z,0
2019-01-27T02:56:21.139Z,0
2019-01-27T02:57:21.118Z,0
2019-01-27T02:58:21.123Z,0
2019-01-27T02:59:21.140Z,0
2019-01-27T03:00:20.734Z,0
2019-01-27T03:01:21.098Z,0
2019-01-27T03:02:20.862Z,0
2019-01-27T03:03:20.919Z,0
2019-01-27T03:04:20.811Z,0
2019-01-27T03:05:21.048Z,0
2019-01-27T03:06:20.792Z,0
2019-01-27T03:07:21.042Z,0
2019-01-27T03:08:21.048Z,0
2019-01-27T03:09:20.786Z,0
2019-01-27T03:10:21.369Z,0
2019-01-27T03:11:20.742Z,0
2019-01-27T03:12:21.313Z,0
2019-01-27T03:13:21.254Z,0
2019-01-27T03:14:20.986Z,0
2019-01-27T03:15:20.955Z,0
2019-01-27T03:16:20.963Z,0
2019-01-27T03:17:20.944Z,0
2019-01-27T03:18:20.930Z,0
2019-01-27T03:19:20.677Z,0
2019-01-27T03:20:20.953Z,0
2019-01-27T03:21:20.688Z,0
2019-01-27T03:22:21.211Z,0
2019-01-27T03:23:20.964Z,0
2019-01-27T03:24:20.882Z,0
2019-01-27T03:25:20.647Z,0
2019-01-27T03:26:20.618Z,0
2019-01-27T03:27:20.672Z,0
2019-01-27T03:28:20.852Z,0
2019-01-27T03:29:20.828Z,0
2019-01-27T03:30:21.274Z,0
2019-01-27T03:31:20.804Z,0
2019-01-27T03:32:20.846Z,0
2019-01-27T03:33:21.142Z,0
2019-01-27T03:34:20.543Z,0
2019-01-27T03:35:20.831Z,0
2019-01-27T03:36:21.052Z,0
2019-01-27T03:37:21.000Z,0
2019-01-27T03:38:21.022Z,0
2019-01-27T03:39:20.731Z,0
2019-01-27T03:40:20.577Z,0
2019-01-27T03:41:20.735Z,0
2019-01-27T03:42:20.714Z,0
2019-01-27T03:43:20.969Z,0
2019-01-27T03:44:20.749Z,0
2019-01-27T03:45:20.955Z,0
2019-01-27T03:46:20.679Z,0
2019-01-27T03:47:20.917Z,0
2019-01-27T03:48:20.654Z,0
2019-01-27T03:49:20.407Z,0
2019-01-27T03:50:20.950Z,0
2019-01-27T03:51:20.616Z,0
2019-01-27T03:52:20.644Z,0
2019-01-27T03:53:20.617Z,0
2019-01-27T03:54:20.850Z,0
2019-01-27T03:55:20.673Z,0
2019-01-27T03:56:20.324Z,0
2019-01-27T03:57:20.356Z,0
2019-01-27T03:58:20.557Z,0
2019-01-27T03:59:20.080Z,0
2019-01-27T04:00:20.866Z,0
2019-01-27T04:01:20.560Z,0
2019-01-27T04:02:20.786Z,0
2019-01-27T04:03:20.520Z,0
2019-01-27T04:04:20.756Z,0
2019-01-27T04:05:20.370Z,0
2019-01-27T04:06:20.253Z,0
2019-01-27T04:07:20.251Z,0
2019-01-27T04:08:20.725Z,0
2019-01-27T04:09:20.476Z,0
2019-01-27T04:10:20.768Z,0
2019-01-27T04:11:20.248Z,0
2019-01-27T04:12:20.445Z,0
2019-01-27T04:13:20.474Z,0
2019-01-27T04:14:19.922Z,0
2019-01-27T04:15:20.296Z,0
2019-01-27T04:16:20.142Z,0
2019-01-27T04:17:20.633Z,0
2019-01-27T04:18:20.145Z,0
2019-01-27T04:19:20.390Z,0
2019-01-27T04:20:20.546Z,0
2019-01-27T04:21:20.379Z,0
2019-01-27T04:22:20.104Z,0
2019-01-27T04:23:20.587Z,0
2019-01-27T04:24:20.355Z,0
2019-01-27T04:25:20.139Z,0
2019-01-27T04:26:20.318Z,0
2019-01-27T04:27:20.538Z,0
2019-01-27T04:28:20.303Z,0
2019-01-27T04:29:20.529Z,0
2019-01-27T04:30:20.312Z,0
2019-01-27T04:31:20.281Z,0
2019-01-27T04:32:20.253Z,0
2019-01-27T04:33:20.507Z,0
2019-01-27T04:34:20.242Z,0
2019-01-27T04:35:20.069Z,0
2019-01-27T04:36:20.273Z,0
2019-01-27T04:37:20.478Z,0
2019-01-27T04:38:20.462Z,0
2019-01-27T04:39:20.449Z,0
2019-01-27T04:40:20.264Z,0
2019-01-27T04:41:20.208Z,0
2019-01-27T04:42:20.168Z,0
2019-01-27T04:43:20.150Z,0
2019-01-27T04:44:20.152Z,0
2019-01-27T04:45:20.219Z,0
2019-01-27T04:46:19.871Z,0
2019-01-27T04:47:20.354Z,0
2019-01-27T04:48:20.154Z,0
2019-01-27T04:49:20.340Z,0
2019-01-27T04:50:20.468Z,0
2019-01-27T04:51:19.939Z,0
2019-01-27T04:52:20.071Z,0
2019-01-27T04:53:20.053Z,0
2019-01-27T04:54:19.789Z,0
2019-01-27T04:55:19.636Z,0
2019-01-27T04:56:20.300Z,0
2019-01-27T04:57:19.774Z,0
2019-01-27T04:58:20.270Z,0
2019-01-27T04:59:20.005Z,0
2019-01-27T05:00:19.830Z,0
2019-01-27T05:01:19.993Z,0
2019-01-27T05:02:19.726Z,0
2019-01-27T05:03:19.962Z,0
2019-01-27T05:04:21.230Z,0
2019-01-27T05:05:19.757Z,0
2019-01-27T05:06:20.192Z,0
2019-01-27T05:07:19.933Z,0
2019-01-27T05:08:19.677Z,0
2019-01-27T05:09:19.662Z,0
2019-01-27T05:10:19.780Z,0
2019-01-27T05:11:19.907Z,0
2019-01-27T05:12:19.994Z,0
2019-01-27T05:13:19.654Z,0
2019-01-27T05:14:19.843Z,0
2019-01-27T05:15:19.627Z,0
2019-01-27T05:16:19.850Z,0
2019-01-27T05:17:20.069Z,0
2019-01-27T05:18:20.104Z,0
2019-01-27T05:19:20.070Z,0
2019-01-27T05:20:19.654Z,0
2019-01-27T05:21:20.050Z,0
2019-01-27T05:22:20.036Z,0
2019-01-27T05:23:20.340Z,0
2019-01-27T05:24:19.525Z,0
2019-01-27T05:25:19.513Z,0
2019-01-27T05:26:19.504Z,0
2019-01-27T05:27:19.768Z,0
2019-01-27T05:28:19.990Z,0
2019-01-27T05:29:19.474Z,0
2019-01-27T05:30:19.750Z,0
2019-01-27T05:31:19.717Z,0
2019-01-27T05:32:19.964Z,0
2019-01-27T05:33:19.706Z,0
2019-01-27T05:34:19.960Z,0
2019-01-27T05:35:19.947Z,0
2019-01-27T05:36:19.416Z,0
2019-01-27T05:37:19.676Z,0
2019-01-27T05:38:19.883Z,0
2019-01-27T05:39:19.633Z,0
2019-01-27T05:40:20.688Z,0
2019-01-27T05:41:19.641Z,0
2019-01-27T05:42:19.613Z,0
2019-01-27T05:43:19.851Z,0
2019-01-27T05:44:19.685Z,0
2019-01-27T05:45:19.663Z,0
2019-01-27T05:46:19.819Z,0
2019-01-27T05:47:19.555Z,0
2019-01-27T05:48:19.577Z,0
2019-01-27T05:49:19.547Z,0
2019-01-27T05:50:19.095Z,0
2019-01-27T05:51:19.269Z,0
2019-01-27T05:52:19.784Z,0
2019-01-27T05:53:19.262Z,0
2019-01-27T05:54:20.209Z,0
2019-01-27T05:55:19.527Z,0
2019-01-27T05:56:19.239Z,0
2019-01-27T05:57:19.218Z,0
2019-01-27T05:58:19.476Z,0
2019-01-27T05:59:19.480Z,0
2019-01-27T06:00:19.564Z,0
2019-01-27T06:01:19.444Z,0
2019-01-27T06:02:19.192Z,0
2019-01-27T06:03:19.418Z,0
2019-01-27T06:04:20.996Z,0
2019-01-27T06:05:19.525Z,0
2019-01-27T06:06:19.438Z,0
2019-01-27T06:07:19.131Z,0
2019-01-27T06:08:19.647Z,0
2019-01-27T06:09:19.114Z,0
2019-01-27T06:10:19.424Z,0
2019-01-27T06:11:19.598Z,0
2019-01-27T06:12:19.109Z,0
2019-01-27T06:13:18.840Z,0
2019-01-27T06:14:19.085Z,0
2019-01-27T06:15:19.355Z,0
2019-01-27T06:16:19.319Z,0
2019-01-27T06:17:19.050Z,0
2019-01-27T06:18:19.531Z,0
2019-01-27T06:19:18.795Z,0
2019-01-27T06:20:19.047Z,0
2019-01-27T06:21:19.279Z,0
2019-01-27T06:22:19.027Z,0
2019-01-27T06:23:19.522Z,0
2019-01-27T06:24:19.543Z,0
2019-01-27T06:25:19.042Z,0
2019-01-27T06:26:19.474Z,0
2019-01-27T06:27:19.230Z,0
2019-01-27T06:28:19.220Z,0
2019-01-27T06:29:19.191Z,0
2019-01-27T06:30:18.942Z,0
2019-01-27T06:31:19.441Z,0
2019-01-27T06:32:19.415Z,0
2019-01-27T06:33:19.172Z,0
2019-01-27T06:34:19.410Z,0
2019-01-27T06:35:19.184Z,4
2019-01-27T06:36:19.175Z,4
2019-01-27T06:37:27.099Z,4
2019-01-27T06:38:19.417Z,4
2019-01-27T06:39:18.881Z,4
2019-01-27T06:40:19.196Z,4
2019-01-27T06:41:19.127Z,8
2019-01-27T06:42:18.851Z,4
2019-01-27T06:43:19.068Z,8
2019-01-27T06:44:19.093Z,8
2019-01-27T06:45:18.886Z,8
2019-01-27T06:46:19.292Z,8
2019-01-27T06:47:18.803Z,12
2019-01-27T06:48:18.570Z,16
2019-01-27T06:49:19.283Z,16
2019-01-27T06:50:19.087Z,20
2019-01-27T06:51:20.065Z,24
2019-01-27T06:52:18.762Z,28
2019-01-27T06:53:18.988Z,36
2019-01-27T06:54:18.723Z,40
2019-01-27T06:55:19.046Z,44
2019-01-27T06:56:18.704Z,52
2019-01-27T06:57:18.961Z,56
2019-01-27T06:58:18.442Z,64
2019-01-27T06:59:18.428Z,72
2019-01-27T07:00:19.230Z,80
2019-01-27T07:01:18.904Z,88
2019-01-27T07:02:19.150Z,92
2019-01-27T07:03:18.916Z,96
2019-01-27T07:04:18.633Z,108
2019-01-27T07:05:19.154Z,120
2019-01-27T07:06:19.124Z,132
2019-01-27T07:07:19.096Z,140
2019-01-27T07:08:18.842Z,136
2019-01-27T07:09:19.088Z,144
2019-01-27T07:10:19.169Z,148
2019-01-27T07:11:19.090Z,156
2019-01-27T07:12:19.076Z,168
2019-01-27T07:13:19.062Z,188
2019-01-27T07:14:18.306Z,192
2019-01-27T07:15:18.676Z,196
2019-01-27T07:16:18.804Z,212
2019-01-27T07:17:18.514Z,240
2019-01-27T07:18:19.014Z,268
2019-01-27T07:19:19.012Z,304
2019-01-27T07:20:18.750Z,344
2019-01-27T07:21:18.770Z,376
2019-01-27T07:22:18.955Z,412
2019-01-27T07:23:18.742Z,440
2019-01-27T07:24:18.485Z,460
2019-01-27T07:25:18.971Z,460
2019-01-27T07:26:19.008Z,468
2019-01-27T07:27:18.441Z,480
2019-01-27T07:28:18.918Z,504
2019-01-27T07:29:18.671Z,560
2019-01-27T07:30:18.720Z,604
2019-01-27T07:31:18.648Z,652
2019-01-27T07:32:18.873Z,704
2019-01-27T07:33:18.872Z,740
2019-01-27T07:34:18.856Z,776
2019-01-27T07:35:18.697Z,792
2019-01-27T07:36:18.853Z,788
2019-01-27T07:37:18.585Z,740
2019-01-27T07:38:18.828Z,720
2019-01-27T07:39:18.578Z,744
2019-01-27T07:40:18.604Z,780
2019-01-27T07:41:18.816Z,788
2019-01-27T07:42:18.792Z,784
2019-01-27T07:43:18.803Z,788
2019-01-27T07:44:18.780Z,816
2019-01-27T07:45:18.760Z,904
2019-01-27T07:46:18.520Z,956
2019-01-27T07:47:18.274Z,984
2019-01-27T07:48:18.781Z,1080
2019-01-27T07:49:18.493Z,1196
2019-01-27T07:50:18.576Z,1280
2019-01-27T07:51:18.488Z,1364
2019-01-27T07:52:18.713Z,1488
2019-01-27T07:53:18.711Z,1596
2019-01-27T07:54:18.708Z,1668
2019-01-27T07:55:18.753Z,1752
2019-01-27T07:56:19.458Z,1772
2019-01-27T07:57:18.666Z,1780
2019-01-27T07:58:18.662Z,1828
2019-01-27T07:59:18.403Z,1904
2019-01-27T08:00:18.726Z,1976
2019-01-27T08:01:18.508Z,1956
2019-01-27T08:02:18.632Z,1900
2019-01-27T08:03:19.366Z,1892
2019-01-27T08:04:18.627Z,1848
2019-01-27T08:05:18.420Z,1800
2019-01-27T08:06:18.642Z,1880
2019-01-27T08:07:18.604Z,2044
2019-01-27T08:08:18.584Z,2200
2019-01-27T08:09:18.632Z,2276
2019-01-27T08:10:18.643Z,2404
2019-01-27T08:11:18.566Z,2632
2019-01-27T08:12:18.056Z,2800
2019-01-27T08:13:18.285Z,2828
2019-01-27T08:14:18.533Z,2972
2019-01-27T08:15:17.909Z,3176
2019-01-27T08:16:19.088Z,3192
2019-01-27T08:17:18.509Z,3272
2019-01-27T08:18:18.501Z,3268
2019-01-27T08:19:18.498Z,3340
2019-01-27T08:20:18.291Z,3416
2019-01-27T08:21:18.553Z,3452
2019-01-27T08:22:17.989Z,3408
2019-01-27T08:23:18.585Z,3496
2019-01-27T08:24:18.469Z,3792
2019-01-27T08:25:18.514Z,3964
2019-01-27T08:26:17.969Z,3988
2019-01-27T08:27:18.201Z,4060
2019-01-27T08:28:18.437Z,4116
2019-01-27T08:29:18.188Z,4196
2019-01-27T08:30:18.467Z,4192
2019-01-27T08:31:18.408Z,4320
2019-01-27T08:32:18.178Z,4316
2019-01-27T08:33:18.155Z,4304
2019-01-27T08:34:18.152Z,4236
2019-01-27T08:35:18.450Z,4180
2019-01-27T08:36:17.878Z,3976
2019-01-27T08:37:19.278Z,3908
2019-01-27T08:38:17.880Z,3760
2019-01-27T08:39:18.363Z,3724
2019-01-27T08:40:18.193Z,3644
2019-01-27T08:41:18.354Z,3912
2019-01-27T08:42:18.326Z,4136
2019-01-27T08:43:18.087Z,4208
2019-01-27T08:44:18.324Z,4364
2019-01-27T08:45:18.402Z,4416
2019-01-27T08:46:18.319Z,4512
2019-01-27T08:47:17.809Z,5120
2019-01-27T08:48:17.809Z,4840
2019-01-27T08:49:18.289Z,4728
2019-01-27T08:50:18.330Z,4592
2019-01-27T08:51:18.035Z,4556
2019-01-27T08:52:18.018Z,4336
2019-01-27T08:53:18.289Z,4360
2019-01-27T08:54:17.780Z,4472
2019-01-27T08:55:17.838Z,4500
2019-01-27T08:56:17.747Z,4532
2019-01-27T08:57:17.986Z,4720
2019-01-27T08:58:18.233Z,4872
2019-01-27T08:59:17.983Z,4868
2019-01-27T09:00:18.017Z,4772
2019-01-27T09:01:18.210Z,4756
2019-01-27T09:02:18.230Z,4900
2019-01-27T09:03:18.201Z,5008
2019-01-27T09:04:17.464Z,4948
2019-01-27T09:05:18.255Z,5048
2019-01-27T09:06:17.924Z,5476
2019-01-27T09:07:18.168Z,5632
2019-01-27T09:08:18.169Z,5320
2019-01-27T09:09:18.156Z,5228
2019-01-27T09:10:18.236Z,5172
2019-01-27T09:11:18.002Z,5236
2019-01-27T09:12:17.992Z,6160
2019-01-27T09:13:18.170Z,5172
2019-01-27T09:14:17.883Z,4940
2019-01-27T09:15:17.896Z,5096
2019-01-27T09:16:17.866Z,5040
2019-01-27T09:17:17.633Z,5076
2019-01-27T09:18:17.361Z,5072
2019-01-27T09:19:17.839Z,4968
2019-01-27T09:20:17.944Z,4848
2019-01-27T09:21:18.090Z,4476
2019-01-27T09:22:17.837Z,4172
2019-01-27T09:23:19.063Z,4200
2019-01-27T09:24:18.066Z,4252
2019-01-27T09:25:18.118Z,4208
2019-01-27T09:26:18.072Z,4412
2019-01-27T09:27:18.331Z,4700
2019-01-27T09:28:17.792Z,4544
2019-01-27T09:29:17.293Z,4460
2019-01-27T09:30:17.536Z,4384
2019-01-27T09:31:17.770Z,4232
2019-01-27T09:32:17.767Z,4296
2019-01-27T09:33:17.757Z,4420
2019-01-27T09:34:20.286Z,4568
2019-01-27T09:35:18.071Z,4680
2019-01-27T09:36:17.500Z,4796
2019-01-27T09:37:18.020Z,4940
2019-01-27T09:38:17.729Z,4980
2019-01-27T09:39:17.482Z,5156
2019-01-27T09:40:17.959Z,5072
2019-01-27T09:41:17.470Z,4932
2019-01-27T09:42:17.513Z,5120
2019-01-27T09:43:17.498Z,6196
2019-01-27T09:44:17.693Z,5216
2019-01-27T09:45:17.771Z,5096
2019-01-27T09:46:18.528Z,4696
2019-01-27T09:47:17.431Z,4504
2019-01-27T09:48:17.897Z,4960
2019-01-27T09:49:17.906Z,4332
2019-01-27T09:50:17.765Z,4344
2019-01-27T09:51:17.652Z,4984
2019-01-27T09:52:17.629Z,4588
2019-01-27T09:53:17.628Z,4532
2019-01-27T09:54:17.633Z,4232
2019-01-27T09:55:17.726Z,4192
2019-01-27T09:56:17.370Z,4308
2019-01-27T09:57:19.307Z,5036
2019-01-27T09:58:17.845Z,4660
2019-01-27T09:59:17.349Z,4692
2019-01-27T10:00:17.365Z,5796
2019-01-27T10:01:17.577Z,6712
2019-01-27T10:02:17.583Z,5216
2019-01-27T10:03:17.329Z,5288
2019-01-27T10:04:17.071Z,5148
2019-01-27T10:05:17.609Z,5144
2019-01-27T10:06:17.546Z,5016
2019-01-27T10:07:17.584Z,4872
2019-01-27T10:08:17.549Z,5008
2019-01-27T10:09:17.527Z,5040
2019-01-27T10:10:17.064Z,5000
2019-01-27T10:11:17.587Z,5008
2019-01-27T10:12:17.605Z,5184
2019-01-27T10:13:17.253Z,5900
2019-01-27T10:14:17.146Z,6212
2019-01-27T10:15:18.298Z,5916
2019-01-27T10:16:17.501Z,6128
2019-01-27T10:17:17.741Z,6192
2019-01-27T10:18:17.732Z,6248
2019-01-27T10:19:17.552Z,5948
2019-01-27T10:20:17.500Z,7484
2019-01-27T10:21:17.235Z,7960
2019-01-27T10:22:17.514Z,7272
2019-01-27T10:23:17.212Z,6672
2019-01-27T10:24:17.478Z,6968
2019-01-27T10:25:22.678Z,7056
2019-01-27T10:26:17.430Z,6216
2019-01-27T10:27:17.444Z,6192
2019-01-27T10:28:17.423Z,6196
2019-01-27T10:29:17.551Z,6156
2019-01-27T10:30:17.424Z,6096
2019-01-27T10:31:17.423Z,6272
2019-01-27T10:32:17.681Z,6024
2019-01-27T10:33:17.230Z,5424
2019-01-27T10:34:17.618Z,5572
2019-01-27T10:35:17.266Z,5540
2019-01-27T10:36:17.362Z,5360
2019-01-27T10:37:19.281Z,5444
2019-01-27T10:38:17.614Z,5372
2019-01-27T10:39:17.353Z,5464
2019-01-27T10:40:19.504Z,5844
2019-01-27T10:41:17.413Z,6380
2019-01-27T10:42:17.429Z,7684
2019-01-27T10:43:17.627Z,7484
2019-01-27T10:44:17.077Z,7664
2019-01-27T10:45:17.430Z,8344
2019-01-27T10:46:17.297Z,7816
2019-01-27T10:47:17.058Z,8612
2019-01-27T10:48:17.602Z,8312
2019-01-27T10:49:17.057Z,6948
2019-01-27T10:50:17.089Z,8448
2019-01-27T10:51:17.545Z,8360
2019-01-27T10:52:17.044Z,7880
2019-01-27T10:53:20.854Z,6448
2019-01-27T10:54:17.053Z,6004
2019-01-27T10:55:17.298Z,6480
2019-01-27T10:56:17.267Z,6588
2019-01-27T10:57:17.009Z,6848
2019-01-27T10:58:17.034Z,6152
2019-01-27T10:59:17.284Z,7148
2019-01-27T11:00:17.888Z,7156
2019-01-27T11:01:16.987Z,7396
2019-01-27T11:02:17.248Z,7452
2019-01-27T11:03:17.500Z,7328
2019-01-27T11:04:16.973Z,5828
2019-01-27T11:05:17.244Z,6584
2019-01-27T11:06:17.220Z,7324
2019-01-27T11:07:16.717Z,7272
2019-01-27T11:08:17.168Z,6580
2019-01-27T11:09:16.711Z,6588
2019-01-27T11:10:17.003Z,5308
2019-01-27T11:11:17.484Z,6220
2019-01-27T11:12:17.441Z,5160
2019-01-27T11:13:17.462Z,5612
2019-01-27T11:14:17.185Z,6920
2019-01-27T11:15:17.225Z,6956
2019-01-27T11:16:17.441Z,5508
2019-01-27T11:17:17.454Z,6932
2019-01-27T11:18:17.205Z,6788
2019-01-27T11:19:17.445Z,6516
2019-01-27T11:20:17.465Z,6376
2019-01-27T11:21:17.156Z,6340
2019-01-27T11:22:17.464Z,6336
2019-01-27T11:23:17.175Z,6252
2019-01-27T11:24:16.892Z,5876
2019-01-27T11:25:17.223Z,6196
2019-01-27T11:26:17.124Z,6080
2019-01-27T11:27:17.365Z,6140
2019-01-27T11:28:17.119Z,6352
2019-01-27T11:29:17.111Z,5344
2019-01-27T11:30:17.373Z,5712
2019-01-27T11:31:17.106Z,6896
2019-01-27T11:32:17.350Z,4872
2019-01-27T11:33:17.367Z,6268
2019-01-27T11:34:17.087Z,4944
2019-01-27T11:35:17.434Z,5592
2019-01-27T11:36:17.077Z,4688
2019-01-27T11:37:16.817Z,4640
2019-01-27T11:38:16.870Z,4784
2019-01-27T11:39:16.808Z,4944
2019-01-27T11:40:17.387Z,5436
2019-01-27T11:41:17.310Z,5732
2019-01-27T11:42:17.289Z,6188
2019-01-27T11:43:17.287Z,6848
2019-01-27T11:44:16.557Z,6472
2019-01-27T11:45:17.128Z,6160
2019-01-27T11:46:16.785Z,5756
2019-01-27T11:47:17.019Z,5652
2019-01-27T11:48:16.536Z,5920
2019-01-27T11:49:17.019Z,6224
2019-01-27T11:50:16.842Z,6484
2019-01-27T11:51:16.510Z,6960
2019-01-27T11:52:22.480Z,7272
2019-01-27T11:53:16.812Z,7152
2019-01-27T11:54:16.986Z,7176
2019-01-27T11:55:16.840Z,7304
2019-01-27T11:56:16.987Z,6420
2019-01-27T11:57:17.234Z,4604
2019-01-27T11:58:17.227Z,4412
2019-01-27T11:59:17.226Z,4604
2019-01-27T12:00:16.981Z,4860
2019-01-27T12:01:16.487Z,4988
2019-01-27T12:02:16.947Z,4976
2019-01-27T12:03:17.230Z,4972
2019-01-27T12:04:16.945Z,4996
2019-01-27T12:05:17.249Z,4940
2019-01-27T12:06:16.943Z,4848
2019-01-27T12:07:17.023Z,5076
2019-01-27T12:08:16.997Z,5532
2019-01-27T12:09:17.183Z,5688
2019-01-27T12:10:16.687Z,5644
2019-01-27T12:11:16.676Z,5480
2019-01-27T12:12:16.652Z,5460
2019-01-27T12:13:16.896Z,5248
2019-01-27T12:14:16.677Z,5232
2019-01-27T12:15:16.994Z,5608
2019-01-27T12:16:17.139Z,5872
2019-01-27T12:17:16.892Z,6028
2019-01-27T12:18:17.136Z,6160
2019-01-27T12:19:16.687Z,6380
2019-01-27T12:20:17.123Z,6480
2019-01-27T12:21:16.867Z,6756
2019-01-27T12:22:16.379Z,7044
2019-01-27T12:23:17.157Z,6780
2019-01-27T12:24:16.845Z,6612
2019-01-27T12:25:17.152Z,7464
2019-01-27T12:26:17.098Z,7872
2019-01-27T12:27:17.098Z,9260
2019-01-27T12:28:16.342Z,8464
2019-01-27T12:29:16.586Z,7400
2019-01-27T12:30:16.890Z,6044
2019-01-27T12:31:16.572Z,6224
2019-01-27T12:32:16.816Z,6072
2019-01-27T12:33:16.838Z,5528
2019-01-27T12:34:16.811Z,5068
2019-01-27T12:35:16.825Z,5352
2019-01-27T12:36:16.587Z,4860
2019-01-27T12:37:16.808Z,4636
2019-01-27T12:38:16.848Z,4604
2019-01-27T12:39:16.558Z,4372
2019-01-27T12:40:16.799Z,4396
2019-01-27T12:41:16.783Z,4608
2019-01-27T12:42:16.520Z,4556
2019-01-27T12:43:17.014Z,4344
2019-01-27T12:44:17.044Z,4308
2019-01-27T12:45:16.787Z,4404
2019-01-27T12:46:16.506Z,4480
2019-01-27T12:47:16.748Z,4712
2019-01-27T12:48:17.039Z,4700
2019-01-27T12:49:16.757Z,4760
2019-01-27T12:50:16.811Z,4832
2019-01-27T12:51:16.721Z,4816
2019-01-27T12:52:16.974Z,4680
2019-01-27T12:53:16.524Z,4192
2019-01-27T12:54:16.735Z,3872
2019-01-27T12:55:16.761Z,3724
2019-01-27T12:56:16.474Z,3916
2019-01-27T12:57:16.752Z,3664
2019-01-27T12:58:16.976Z,3764
2019-01-27T12:59:16.742Z,4380
2019-01-27T13:00:16.692Z,4948
2019-01-27T13:01:16.432Z,4700
2019-01-27T13:02:16.424Z,5060
2019-01-27T13:03:16.421Z,4964
2019-01-27T13:04:16.916Z,5752
2019-01-27T13:05:17.778Z,5768
2019-01-27T13:06:16.688Z,5440
2019-01-27T13:07:16.749Z,4520
2019-01-27T13:08:16.947Z,4280
2019-01-27T13:09:16.621Z,4104
2019-01-27T13:10:16.933Z,4048
2019-01-27T13:11:16.655Z,3992
2019-01-27T13:12:16.367Z,4108
2019-01-27T13:13:19.228Z,4032
2019-01-27T13:14:16.603Z,4008
2019-01-27T13:15:16.875Z,3800
2019-01-27T13:16:16.863Z,3024
2019-01-27T13:17:16.688Z,2376
2019-01-27T13:18:16.364Z,3112
2019-01-27T13:19:16.847Z,3944
2019-01-27T13:20:16.669Z,4152
2019-01-27T13:21:16.838Z,4492
2019-01-27T13:22:18.998Z,5248
2019-01-27T13:23:16.880Z,5544
2019-01-27T13:24:16.567Z,5164
2019-01-27T13:25:16.674Z,4804
2019-01-27T13:26:16.580Z,4544
2019-01-27T13:27:16.554Z,4288
2019-01-27T13:28:16.804Z,4308
2019-01-27T13:29:16.777Z,4336
2019-01-27T13:30:16.592Z,4172
2019-01-27T13:31:16.771Z,4200
2019-01-27T13:32:16.542Z,4152
2019-01-27T13:33:16.772Z,4120
2019-01-27T13:34:16.776Z,4180
2019-01-27T13:35:16.594Z,4256
2019-01-27T13:36:16.259Z,4428
2019-01-27T13:37:16.523Z,4844
2019-01-27T13:38:16.782Z,4964
2019-01-27T13:39:16.488Z,5132
2019-01-27T13:40:16.807Z,4788
2019-01-27T13:41:16.230Z,4596
2019-01-27T13:42:16.480Z,4568
2019-01-27T13:43:16.480Z,4596
2019-01-27T13:44:16.469Z,4508
2019-01-27T13:45:16.237Z,4324
2019-01-27T13:46:16.714Z,4248
2019-01-27T13:47:16.188Z,4156
2019-01-27T13:48:16.438Z,4444
2019-01-27T13:49:16.182Z,4260
2019-01-27T13:50:17.104Z,4520
2019-01-27T13:51:16.660Z,4288
2019-01-27T13:52:16.661Z,4440
2019-01-27T13:53:16.458Z,4080
2019-01-27T13:54:15.949Z,4460
2019-01-27T13:55:16.664Z,4136
2019-01-27T13:56:16.420Z,4140
2019-01-27T13:57:16.644Z,3952
2019-01-27T13:58:16.637Z,3872
2019-01-27T13:59:16.649Z,4032
2019-01-27T14:00:16.682Z,4112
2019-01-27T14:01:15.874Z,4320